createdAt,value
2023-11-18T05:15:05.422Z,32.20
2023-11-18T05:16:04.385Z,35.70
2023-11-18T05:17:04.414Z,36.00
2023-11-18T05:18:04.448Z,38.90
2023-11-18T05:19:04.350Z,39.80
2023-11-18T05:20:04.390Z,39.20
2023-11-18T05:21:04.338Z,38.80
2023-11-18T05:22:04.305Z,40.40
2023-11-18T05:23:04.322Z,38.30
2023-11-18T05:24:04.281Z,39.20
2023-11-18T05:25:04.270Z,41.40
2023-11-18T05:26:04.278Z,39.00
2023-11-18T05:27:04.236Z,41.30
2023-11-18T05:28:04.259Z,40.60
2023-11-18T05:29:04.253Z,38.80
2023-11-18T05:30:04.222Z,40.40
2023-11-18T05:31:04.351Z,38.50
2023-11-18T05:32:04.233Z,40.10
2023-11-18T05:33:04.262Z,37.40
2023-11-18T05:34:04.156Z,39.20
2023-11-18T05:35:04.176Z,39.00
2023-11-18T05:36:04.135Z,38.40
2023-11-18T05:37:04.145Z,36.80
2023-11-18T05:38:04.146Z,37.70
2023-11-18T05:39:04.088Z,37.80
2023-11-18T05:40:04.086Z,38.00
2023-11-18T05:41:04.077Z,40.00
2023-11-18T05:42:04.066Z,39.20
2023-11-18T05:43:04.043Z,41.50
2023-11-18T05:44:04.156Z,40.30
2023-11-18T05:45:04.013Z,36.90
2023-11-18T05:46:04.052Z,38.60
2023-11-18T05:47:04.138Z,41.00
2023-11-18T05:48:04.067Z,42.30
2023-11-18T05:49:03.966Z,40.80
2023-11-18T05:50:04.053Z,40.30
2023-11-18T05:51:03.959Z,41.10
2023-11-18T05:52:03.951Z,41.70
2023-11-18T05:53:03.995Z,39.90
2023-11-18T05:54:03.906Z,41.80
2023-11-18T05:55:03.892Z,40.00
2023-11-18T05:56:03.976Z,41.30
2023-11-18T05:57:03.863Z,38.60
2023-11-18T05:58:03.851Z,41.70
2023-11-18T05:59:03.938Z,42.30
2023-11-18T06:00:03.860Z,41.50
2023-11-18T06:01:03.829Z,40.50
2023-11-18T06:02:03.914Z,40.20
2023-11-18T06:03:04.015Z,42.70
2023-11-18T06:04:03.831Z,41.90
2023-11-18T06:05:03.790Z,40.80
2023-11-18T06:06:03.753Z,39.70
2023-11-18T06:07:03.809Z,39.70
2023-11-18T06:08:03.786Z,38.70
2023-11-18T06:09:03.716Z,39.10
2023-11-18T06:10:03.727Z,40.20
2023-11-18T06:11:03.724Z,41.90
2023-11-18T06:12:03.687Z,42.00
2023-11-18T06:13:03.662Z,38.30
2023-11-18T06:14:03.700Z,37.20
2023-11-18T06:15:03.650Z,34.30
2023-11-18T06:16:03.632Z,34.80
2023-11-18T06:17:03.662Z,36.20
2023-11-18T06:18:03.678Z,37.10
2023-11-18T06:19:03.595Z,35.60
2023-11-18T06:20:03.628Z,35.30
2023-11-18T06:21:03.559Z,34.40
2023-11-18T06:22:03.546Z,36.10
2023-11-18T06:23:03.602Z,35.70
2023-11-18T06:24:03.530Z,40.00
2023-11-18T06:25:03.531Z,38.80
2023-11-18T06:26:03.578Z,39.70
2023-11-18T06:27:03.485Z,37.40
2023-11-18T06:28:03.482Z,39.10
2023-11-18T06:29:03.501Z,38.60
2023-11-18T06:30:03.441Z,38.20
2023-11-18T06:31:03.436Z,37.90
2023-11-18T06:32:03.418Z,37.60
2023-11-18T06:33:03.498Z,39.60
2023-11-18T06:34:03.432Z,37.80
2023-11-18T06:35:03.465Z,40.70
2023-11-18T06:36:03.363Z,37.90
2023-11-18T06:37:03.366Z,38.20
2023-11-18T06:38:03.398Z,37.00
2023-11-18T06:39:03.336Z,38.80
2023-11-18T06:40:03.332Z,39.40
2023-11-18T06:41:05.211Z,39.20
2023-11-18T06:42:03.345Z,34.90
2023-11-18T06:43:03.289Z,38.00
2023-11-18T06:44:03.295Z,40.20
2023-11-18T06:45:03.263Z,38.60
2023-11-18T06:46:03.236Z,37.60
2023-11-18T06:47:03.464Z,36.80
2023-11-18T06:48:03.346Z,38.70
2023-11-18T06:49:03.203Z,35.90
2023-11-18T06:50:03.205Z,38.00
2023-11-18T06:51:03.197Z,39.90
2023-11-18T06:52:03.195Z,42.80
2023-11-18T06:53:03.169Z,41.50
2023-11-18T06:54:03.134Z,44.10
2023-11-18T06:55:03.129Z,40.80
2023-11-18T06:56:03.146Z,42.20
2023-11-18T06:57:03.110Z,38.50
2023-11-18T06:58:03.121Z,40.40
2023-11-18T06:59:03.172Z,39.90
2023-11-18T07:00:03.075Z,38.40
2023-11-18T07:01:03.127Z,19.10
2023-11-18T07:02:04.509Z,24.00
2023-11-18T07:03:03.132Z,31.50
2023-11-18T07:04:03.044Z,35.40
2023-11-18T07:05:03.047Z,38.10
2023-11-18T07:06:03.032Z,38.90
2023-11-18T07:07:02.977Z,32.40
2023-11-18T07:08:03.015Z,28.20
2023-11-18T07:09:02.949Z,35.10
2023-11-18T07:10:02.972Z,33.70
2023-11-18T07:11:02.994Z,38.10
2023-11-18T07:12:02.902Z,41.70
2023-11-18T07:13:02.900Z,26.60
2023-11-18T07:14:02.906Z,24.80
2023-11-18T07:15:02.888Z,18.40
2023-11-18T07:16:02.869Z,18.60
2023-11-18T07:17:02.881Z,16.90
2023-11-18T07:18:02.913Z,16.30
2023-11-18T07:19:02.828Z,15.80
2023-11-18T07:20:02.885Z,14.50
2023-11-18T07:21:02.798Z,15.20
2023-11-18T07:22:02.788Z,19.50
2023-11-18T07:23:02.785Z,16.40
2023-11-18T07:24:02.774Z,14.40
2023-11-18T07:25:02.778Z,13.80
2023-11-18T07:26:02.813Z,14.10
2023-11-18T07:27:02.726Z,15.30
2023-11-18T07:28:02.702Z,15.10
2023-11-18T07:29:02.745Z,16.40
2023-11-18T07:30:02.685Z,17.20
2023-11-18T07:31:02.696Z,17.20
2023-11-18T07:32:02.693Z,19.20
2023-11-18T07:33:02.707Z,17.20
2023-11-18T07:34:02.642Z,19.40
2023-11-18T07:35:02.687Z,19.40
2023-11-18T07:36:02.612Z,20.10
2023-11-18T07:37:02.599Z,19.30
2023-11-18T07:38:02.686Z,20.20
2023-11-18T07:39:02.608Z,19.60
2023-11-18T07:40:02.547Z,21.00
2023-11-18T07:41:02.581Z,21.00
2023-11-18T07:42:02.526Z,22.10
2023-11-18T07:43:02.536Z,22.40
2023-11-18T07:44:03.154Z,21.10
2023-11-18T07:45:02.489Z,22.30
2023-11-18T07:46:02.503Z,22.30
2023-11-18T07:47:02.496Z,22.30
2023-11-18T07:48:02.557Z,24.10
2023-11-18T07:49:02.478Z,24.70
2023-11-18T07:50:02.438Z,24.90
2023-11-18T07:51:02.411Z,25.10
2023-11-18T07:52:02.408Z,24.20
2023-11-18T07:53:02.477Z,24.40
2023-11-18T07:54:02.370Z,23.70
2023-11-18T07:55:02.388Z,23.90
2023-11-18T07:56:02.390Z,23.00
2023-11-18T07:57:02.360Z,24.60
2023-11-18T07:58:02.329Z,25.30
2023-11-18T07:59:02.359Z,26.00
2023-11-18T08:00:02.304Z,26.80
2023-11-18T08:01:02.307Z,24.20
2023-11-18T08:02:04.577Z,23.20
2023-11-18T08:03:02.300Z,23.20
2023-11-18T08:04:02.279Z,23.00
2023-11-18T08:05:02.329Z,21.80
2023-11-18T08:06:02.234Z,20.80
2023-11-18T08:07:02.224Z,21.70
2023-11-18T08:08:02.219Z,21.60
2023-11-18T08:09:02.187Z,20.40
2023-11-18T08:10:04.310Z,23.30
2023-11-18T08:11:02.202Z,23.40
2023-11-18T08:12:02.146Z,23.40
2023-11-18T08:13:02.134Z,23.40
2023-11-18T08:14:02.151Z,23.50
2023-11-18T08:15:02.156Z,23.40
2023-11-18T08:16:02.279Z,23.90
2023-11-18T08:17:02.225Z,23.60
2023-11-18T08:18:02.137Z,23.30
2023-11-18T08:19:02.054Z,24.60
2023-11-18T08:20:02.139Z,21.60
2023-11-18T08:21:02.058Z,21.30
2023-11-18T08:22:02.028Z,22.10
2023-11-18T08:23:02.059Z,22.20
2023-11-18T08:24:01.995Z,21.70
2023-11-18T08:25:02.034Z,22.30
2023-11-18T08:26:02.013Z,20.10
2023-11-18T08:27:01.963Z,20.80
2023-11-18T08:28:01.958Z,19.10
2023-11-18T08:29:01.973Z,20.80
2023-11-18T08:30:01.945Z,20.10
2023-11-18T08:31:02.105Z,20.40
2023-11-18T08:32:02.003Z,21.10
2023-11-18T08:33:05.458Z,19.80
2023-11-18T08:34:01.891Z,20.00
2023-11-18T08:35:01.884Z,20.60
2023-11-18T08:36:01.842Z,25.10
2023-11-18T08:37:01.837Z,20.70
2023-11-18T08:38:01.935Z,22.30
2023-11-18T08:39:01.821Z,22.50
2023-11-18T08:40:01.811Z,23.00
2023-11-18T08:41:01.810Z,21.80
2023-11-18T08:42:01.784Z,21.30
2023-11-18T08:43:01.765Z,20.20
2023-11-18T08:44:13.714Z,19.00
2023-11-18T08:45:05.276Z,19.20
2023-11-18T08:46:01.745Z,18.70
2023-11-18T08:47:01.731Z,18.20
2023-11-18T08:48:01.780Z,17.90
2023-11-18T08:49:01.681Z,16.60
2023-11-18T08:50:01.741Z,16.60
2023-11-18T08:51:01.648Z,16.90
2023-11-18T08:52:01.649Z,17.80
2023-11-18T08:53:01.649Z,17.30
2023-11-18T08:54:01.622Z,16.70
2023-11-18T08:55:01.595Z,17.30
2023-11-18T08:56:01.622Z,16.30
2023-11-18T08:57:01.568Z,16.70
2023-11-18T08:58:01.632Z,16.30
2023-11-18T08:59:01.576Z,17.70
2023-11-18T09:00:01.557Z,17.90
2023-11-18T09:01:01.522Z,17.40
2023-11-18T09:02:01.615Z,17.50
2023-11-18T09:03:01.651Z,17.70
2023-11-18T09:04:01.529Z,17.60
2023-11-18T09:05:01.503Z,18.30
2023-11-18T09:06:01.465Z,20.40
2023-11-18T09:07:01.531Z,23.10
2023-11-18T09:08:01.490Z,19.80
2023-11-18T09:09:01.424Z,18.70
2023-11-18T09:10:01.419Z,17.10
2023-11-18T09:11:01.487Z,16.80
2023-11-18T09:12:01.405Z,17.50
2023-11-18T09:13:02.452Z,16.70
2023-11-18T09:14:02.335Z,16.60
2023-11-18T09:15:01.373Z,17.00
2023-11-18T09:16:01.417Z,15.50
2023-11-18T09:17:01.357Z,15.40
2023-11-18T09:18:01.402Z,16.60
2023-11-18T09:19:01.319Z,15.50
2023-11-18T09:20:01.323Z,15.40
2023-11-18T09:21:01.277Z,16.10
2023-11-18T09:22:01.279Z,14.80
2023-11-18T09:23:01.254Z,15.90
2023-11-18T09:24:01.234Z,15.40
2023-11-18T09:25:01.258Z,16.40
2023-11-18T09:26:01.254Z,16.40
2023-11-18T09:27:01.191Z,17.30
2023-11-18T09:28:01.183Z,17.50
2023-11-18T09:29:01.230Z,17.30
2023-11-18T09:30:01.218Z,16.40
2023-11-18T09:31:01.158Z,17.50
2023-11-18T09:32:01.177Z,18.10
2023-11-18T09:33:01.185Z,16.50
2023-11-18T09:34:01.310Z,16.10
2023-11-18T09:35:01.169Z,16.80
2023-11-18T09:36:01.085Z,16.40
2023-11-18T09:37:01.076Z,17.40
2023-11-18T09:38:01.132Z,17.00
2023-11-18T09:39:01.038Z,16.70
2023-11-18T09:40:01.060Z,15.60
2023-11-18T09:41:01.065Z,17.00
2023-11-18T09:42:01.013Z,16.30
2023-11-18T09:43:01.011Z,16.10
2023-11-18T09:44:01.046Z,16.30
2023-11-18T09:45:00.996Z,15.50
2023-11-18T09:46:00.995Z,14.70
2023-11-18T09:47:00.972Z,15.10
2023-11-18T09:48:00.999Z,15.20
2023-11-18T09:49:01.101Z,14.90
2023-11-18T09:50:01.128Z,15.70
2023-11-18T09:51:00.956Z,15.60
2023-11-18T09:52:00.894Z,16.30
2023-11-18T09:53:00.901Z,16.20
2023-11-18T09:54:00.869Z,15.80
2023-11-18T09:55:00.850Z,15.70
2023-11-18T09:56:00.873Z,14.10
2023-11-18T09:57:00.848Z,15.10
2023-11-18T09:58:00.827Z,14.60
2023-11-18T09:59:00.824Z,14.70
2023-11-18T10:00:00.783Z,14.40
2023-11-18T10:01:00.767Z,14.90
2023-11-18T10:02:00.818Z,14.30
2023-11-18T10:03:00.888Z,13.70
2023-11-18T10:04:00.827Z,13.60
2023-11-18T10:05:00.743Z,13.50
2023-11-18T10:06:00.703Z,13.10
2023-11-18T10:07:00.688Z,12.60
2023-11-18T10:08:01.012Z,13.10
2023-11-18T10:09:00.671Z,13.00
2023-11-18T10:10:00.649Z,14.60
2023-11-18T10:11:00.655Z,13.10
2023-11-18T10:12:00.636Z,13.00
2023-11-18T10:13:00.618Z,12.60
2023-11-18T10:14:00.676Z,11.90
2023-11-18T10:15:00.589Z,12.50
2023-11-18T10:16:00.577Z,12.00
2023-11-18T10:17:00.590Z,12.00
2023-11-18T10:18:00.820Z,11.90
2023-11-18T10:19:00.546Z,13.30
2023-11-18T10:20:00.572Z,11.90
2023-11-18T10:21:00.512Z,12.00
2023-11-18T10:22:01.923Z,12.70
2023-11-18T10:23:00.515Z,11.90
2023-11-18T10:24:00.472Z,11.10
2023-11-18T10:25:00.477Z,12.20
2023-11-18T10:26:00.508Z,11.00
2023-11-18T10:27:00.448Z,10.80
2023-11-18T10:28:02.509Z,11.50
2023-11-18T10:29:00.450Z,10.50
2023-11-18T10:30:00.404Z,10.90
2023-11-18T10:31:00.445Z,10.00
2023-11-18T10:32:00.411Z,11.10
2023-11-18T10:33:00.404Z,11.20
2023-11-18T10:34:01.598Z,10.30
2023-11-18T10:35:00.533Z,9.80
2023-11-18T10:36:00.331Z,9.50
2023-11-18T10:37:00.301Z,10.20
2023-11-18T10:39:00.276Z,9.50
2023-11-18T10:40:00.306Z,10.20
2023-11-18T10:41:00.326Z,10.10
2023-11-18T10:42:00.257Z,9.40
2023-11-18T10:43:00.278Z,10.20
2023-11-18T10:44:00.289Z,10.60
2023-11-18T10:45:00.338Z,10.60
2023-11-18T10:46:00.236Z,10.10
2023-11-18T10:47:00.710Z,10.00
2023-11-18T10:48:00.201Z,10.10
2023-11-18T10:49:00.176Z,10.30
2023-11-18T10:50:00.318Z,11.20
2023-11-18T10:51:00.121Z,11.00
2023-11-18T10:52:02.903Z,11.30
2023-11-18T10:53:00.126Z,11.70
2023-11-18T10:54:00.486Z,12.00
2023-11-18T10:55:00.131Z,12.00
2023-11-18T10:56:00.087Z,13.40
2023-11-18T10:57:00.042Z,13.80
2023-11-18T10:58:02.753Z,13.10
2023-11-18T10:59:00.079Z,13.80
2023-11-18T11:00:00.001Z,15.00
2023-11-18T11:00:59.998Z,13.10
2023-11-18T11:02:00.089Z,12.30
2023-11-18T11:03:00.115Z,12.80
2023-11-18T11:04:02.596Z,11.80
2023-11-18T11:05:00.021Z,11.30
2023-11-18T11:05:59.957Z,10.40
2023-11-18T11:06:59.918Z,13.70
2023-11-18T11:07:59.940Z,10.90
2023-11-18T11:08:59.910Z,11.30
2023-11-18T11:09:59.872Z,11.60
2023-11-18T11:11:00.019Z,11.20
2023-11-18T11:11:59.854Z,12.20
2023-11-18T11:12:59.847Z,10.50
2023-11-18T11:13:59.837Z,11.10
2023-11-18T11:14:59.813Z,11.60
2023-11-18T11:15:59.799Z,11.20
2023-11-18T11:16:59.864Z,10.60
2023-11-18T11:17:59.869Z,11.30
2023-11-18T11:18:59.753Z,9.30
2023-11-18T11:19:59.783Z,8.80
2023-11-18T11:20:59.729Z,9.30
2023-11-18T11:21:59.725Z,9.10
2023-11-18T11:22:59.782Z,9.50
2023-11-18T11:23:59.695Z,8.90
2023-11-18T11:24:59.686Z,8.90
2023-11-18T11:25:59.711Z,9.50
2023-11-18T11:26:59.662Z,9.10
2023-11-18T11:27:59.656Z,9.20
2023-11-18T11:28:59.636Z,8.80
2023-11-18T11:29:59.623Z,8.30
2023-11-18T11:30:59.615Z,9.00
2023-11-18T11:31:59.674Z,8.00
2023-11-18T11:32:59.580Z,9.50
2023-11-18T11:33:59.595Z,8.80
2023-11-18T11:34:59.588Z,10.80
2023-11-18T11:35:59.540Z,11.30
2023-11-18T11:36:59.536Z,10.10
2023-11-18T11:37:59.592Z,9.30
2023-11-18T11:38:59.505Z,8.70
2023-11-18T11:39:59.766Z,9.60
2023-11-18T11:40:59.532Z,11.20
2023-11-18T11:41:59.473Z,11.40
2023-11-18T11:42:59.441Z,10.00
2023-11-18T11:43:59.612Z,10.10
2023-11-18T11:44:59.470Z,10.30
2023-11-18T11:45:59.442Z,8.40
2023-11-18T11:46:59.477Z,9.50
2023-11-18T11:47:59.473Z,9.50
2023-11-18T11:48:59.371Z,9.00
2023-11-18T11:50:01.747Z,8.40
2023-11-18T11:50:59.379Z,9.50
2023-11-18T11:51:59.343Z,9.40
2023-11-18T11:52:59.325Z,8.40
2023-11-18T11:53:59.352Z,8.00
2023-11-18T11:54:59.299Z,9.60
2023-11-18T11:55:59.347Z,7.90
2023-11-18T11:56:59.269Z,7.70
2023-11-18T11:57:59.267Z,8.80
2023-11-18T11:58:59.279Z,9.60
2023-11-18T11:59:59.263Z,10.40
2023-11-18T12:00:59.258Z,10.80
2023-11-18T12:01:59.364Z,11.00
2023-11-18T12:02:59.205Z,12.10
2023-11-18T12:03:59.644Z,10.80
2023-11-18T12:04:59.289Z,9.50
2023-11-18T12:05:59.158Z,7.80
2023-11-18T12:07:08.604Z,8.10
2023-11-18T12:08:00.188Z,8.10
2023-11-18T12:08:59.124Z,8.80
2023-11-18T12:09:59.157Z,8.00
2023-11-18T12:10:59.129Z,7.90
2023-11-18T12:12:00.470Z,7.90
2023-11-18T12:12:59.063Z,7.30
2023-11-18T12:13:59.107Z,7.50
2023-11-18T12:14:59.158Z,7.90
2023-11-18T12:15:59.173Z,7.80
2023-11-18T12:16:59.003Z,8.70
2023-11-18T12:17:59.373Z,8.80
2023-11-18T12:18:58.991Z,8.30
2023-11-18T12:19:59.010Z,8.20
2023-11-18T12:20:59.060Z,9.50
2023-11-18T12:21:58.955Z,8.40
2023-11-18T12:22:59.004Z,9.60
2023-11-18T12:23:58.930Z,8.10
2023-11-18T12:24:59.373Z,7.60
2023-11-18T12:25:59.087Z,7.70
2023-11-18T12:26:58.882Z,8.30
2023-11-18T12:27:58.895Z,8.50
2023-11-18T12:28:58.930Z,8.80
2023-11-18T12:29:58.848Z,9.70
2023-11-18T12:30:59.320Z,9.20
2023-11-18T12:31:58.969Z,9.50
2023-11-18T12:32:58.883Z,10.20
2023-11-18T12:33:58.791Z,10.60
2023-11-18T12:34:58.801Z,9.10
2023-11-18T12:35:58.768Z,9.50
2023-11-18T12:36:58.790Z,10.30
2023-11-18T12:37:58.773Z,9.90
2023-11-18T12:38:58.817Z,9.60
2023-11-18T12:39:58.712Z,9.80
2023-11-18T12:40:58.789Z,9.20
2023-11-18T12:41:58.715Z,9.50
2023-11-18T12:42:58.678Z,9.10
2023-11-18T12:43:58.688Z,8.90
2023-11-18T12:44:58.662Z,9.50
2023-11-18T12:45:58.688Z,9.70
2023-11-18T12:46:58.662Z,9.20
2023-11-18T12:47:58.670Z,8.70
2023-11-18T12:48:58.594Z,12.40
2023-11-18T12:49:58.750Z,9.10
2023-11-18T12:50:58.577Z,8.80
2023-11-18T12:51:58.576Z,10.70
2023-11-18T12:52:58.814Z,10.60
2023-11-18T12:53:58.535Z,10.20
2023-11-18T12:54:58.512Z,8.60
2023-11-18T12:55:58.544Z,8.80
2023-11-18T12:56:58.505Z,9.40
2023-11-18T12:57:58.485Z,9.40
2023-11-18T12:58:58.489Z,10.50
2023-11-18T12:59:58.473Z,8.80
2023-11-18T13:00:58.571Z,9.60
2023-11-18T13:01:59.051Z,9.20
2023-11-18T13:02:58.605Z,9.10
2023-11-18T13:03:58.530Z,9.50
2023-11-18T13:04:58.409Z,10.20
2023-11-18T13:05:58.402Z,8.80
2023-11-18T13:06:58.368Z,9.60
2023-11-18T13:07:58.414Z,9.20
2023-11-18T13:08:58.359Z,8.80
2023-11-18T13:09:58.344Z,9.50
2023-11-18T13:10:58.341Z,8.90
2023-11-18T13:12:00.450Z,9.40
2023-11-18T13:12:58.291Z,9.50
2023-11-18T13:13:58.347Z,11.00
2023-11-18T13:14:58.290Z,9.80
2023-11-18T13:15:58.275Z,10.00
2023-11-18T13:16:58.257Z,10.10
2023-11-18T13:17:58.260Z,11.00
2023-11-18T13:18:58.224Z,9.80
2023-11-18T13:19:58.264Z,10.30
2023-11-18T13:20:58.184Z,9.20
2023-11-18T13:21:58.174Z,9.50
2023-11-18T13:22:58.178Z,9.30
2023-11-18T13:23:58.169Z,10.00
2023-11-18T13:24:58.144Z,9.90
2023-11-18T13:25:58.162Z,9.90
2023-11-18T13:26:58.110Z,10.50
2023-11-18T13:27:58.108Z,11.40
2023-11-18T13:28:58.125Z,11.90
2023-11-18T13:29:58.076Z,11.90
2023-11-18T13:30:58.071Z,12.00
2023-11-18T13:31:58.068Z,11.50
2023-11-18T13:32:58.099Z,12.10
2023-11-18T13:33:58.081Z,13.50
2023-11-18T13:34:58.049Z,14.20
2023-11-18T13:35:57.995Z,15.80
2023-11-18T13:36:57.988Z,18.70
2023-11-18T13:37:57.999Z,19.60
2023-11-18T13:38:57.976Z,13.90
2023-11-18T13:39:57.962Z,14.30
2023-11-18T13:40:57.936Z,14.30
2023-11-18T13:41:57.920Z,15.90
2023-11-18T13:42:57.916Z,14.50
2023-11-18T13:43:57.918Z,14.70
2023-11-18T13:44:57.895Z,12.70
2023-11-18T13:45:57.911Z,13.90
2023-11-18T13:46:57.910Z,14.10
2023-11-18T13:47:57.925Z,12.90
2023-11-18T13:48:57.834Z,13.40
2023-11-18T13:49:57.868Z,12.90
2023-11-18T13:50:57.837Z,15.70
2023-11-18T13:51:57.801Z,15.00
2023-11-18T13:52:58.010Z,13.10
2023-11-18T13:53:57.777Z,13.10
2023-11-18T13:54:57.751Z,13.80
2023-11-18T13:55:57.779Z,14.30
2023-11-18T13:56:57.730Z,13.50
2023-11-18T13:57:57.717Z,14.00
2023-11-18T13:58:57.741Z,13.80
2023-11-18T13:59:57.694Z,13.90
2023-11-18T14:00:57.696Z,12.00
2023-11-18T14:01:57.802Z,13.30
2023-11-18T14:02:57.813Z,11.70
2023-11-18T14:03:57.706Z,12.70
2023-11-18T14:04:57.655Z,12.30
2023-11-18T14:05:57.642Z,12.00
2023-11-18T14:06:57.603Z,11.70
2023-11-18T14:07:57.609Z,11.70
2023-11-18T14:08:57.594Z,12.30
2023-11-18T14:09:57.560Z,13.00
2023-11-18T14:11:02.975Z,12.00
2023-11-18T14:11:58.556Z,14.10
2023-11-18T14:12:57.526Z,12.00
2023-11-18T14:13:57.533Z,13.80
2023-11-18T14:14:57.512Z,17.40
2023-11-18T14:15:57.588Z,12.40
2023-11-18T14:16:57.503Z,12.80
2023-11-18T14:17:57.459Z,14.70
2023-11-18T14:18:57.452Z,15.20
2023-11-18T14:19:57.482Z,15.90
2023-11-18T14:20:57.417Z,23.00
2023-11-18T14:21:57.396Z,16.50
2023-11-18T14:22:57.467Z,13.50
2023-11-18T14:23:57.410Z,20.50
2023-11-18T14:24:57.394Z,14.30
2023-11-18T14:25:57.387Z,13.10
2023-11-18T14:26:57.347Z,9.70
2023-11-18T14:27:57.328Z,10.20
2023-11-18T14:28:57.339Z,10.20
2023-11-18T14:29:57.299Z,10.10
2023-11-18T14:30:57.366Z,11.00
2023-11-18T14:31:57.422Z,10.60
2023-11-18T14:32:57.299Z,11.50
2023-11-18T14:33:57.264Z,11.20
2023-11-18T14:34:57.274Z,10.90
2023-11-18T14:35:57.229Z,11.00
2023-11-18T14:36:57.222Z,10.40
2023-11-18T14:37:57.312Z,9.70
2023-11-18T14:38:57.230Z,9.90
2023-11-18T14:39:57.167Z,11.30
2023-11-18T14:40:57.213Z,11.40
2023-11-18T14:41:57.143Z,11.00
2023-11-18T14:42:57.142Z,9.60
2023-11-18T14:43:57.178Z,10.60
2023-11-18T14:44:57.114Z,10.80
2023-11-18T14:45:57.113Z,8.80
2023-11-18T14:46:57.117Z,8.90
2023-11-18T14:47:57.368Z,8.70
2023-11-18T14:48:57.050Z,9.10
2023-11-18T14:49:57.058Z,8.90
2023-11-18T14:50:57.019Z,8.60
2023-11-18T14:51:57.014Z,8.00
2023-11-18T14:52:57.055Z,8.30
2023-11-18T14:53:56.998Z,8.30
2023-11-18T14:54:56.976Z,7.60
2023-11-18T14:55:56.993Z,6.70
2023-11-18T14:56:56.961Z,7.10
2023-11-18T14:57:56.955Z,6.50
2023-11-18T14:58:56.935Z,6.70
2023-11-18T14:59:56.917Z,6.70
2023-11-18T15:00:56.898Z,6.50
2023-11-18T15:01:56.935Z,6.50
2023-11-18T15:02:59.946Z,7.00
2023-11-18T15:03:56.952Z,6.90
2023-11-18T15:04:56.873Z,6.40
2023-11-18T15:05:56.837Z,6.20
2023-11-18T15:06:56.854Z,6.70
2023-11-18T15:07:56.936Z,6.10
2023-11-18T15:08:56.800Z,6.30
2023-11-18T15:09:56.786Z,6.00
2023-11-18T15:10:56.789Z,6.70
2023-11-18T15:11:56.773Z,7.60
2023-11-18T15:12:56.742Z,6.90
2023-11-18T15:13:56.754Z,7.50
2023-11-18T15:14:56.720Z,8.70
2023-11-18T15:15:56.766Z,7.00
2023-11-18T15:16:56.873Z,7.30
2023-11-18T15:17:56.714Z,7.60
2023-11-18T15:18:56.718Z,6.60
2023-11-18T15:19:56.689Z,5.80
2023-11-18T15:20:56.648Z,5.90
2023-11-18T15:21:56.636Z,6.20
2023-11-18T15:22:56.671Z,6.50
2023-11-18T15:23:56.610Z,6.70
2023-11-18T15:24:56.603Z,7.50
2023-11-18T15:25:56.631Z,8.10
2023-11-18T15:26:56.580Z,7.30
2023-11-18T15:27:56.553Z,7.80
2023-11-18T15:28:56.605Z,7.90
2023-11-18T15:29:56.536Z,7.40
2023-11-18T15:30:56.555Z,7.60
2023-11-18T15:31:56.583Z,8.00
2023-11-18T15:32:56.511Z,7.50
2023-11-18T15:33:56.493Z,7.30
2023-11-18T15:34:56.496Z,7.80
2023-11-18T15:35:56.448Z,6.70
2023-11-18T15:36:56.439Z,7.40
2023-11-18T15:37:56.448Z,7.40
2023-11-18T15:38:56.423Z,8.00
2023-11-18T15:39:56.410Z,8.30
2023-11-18T15:40:56.477Z,8.30
2023-11-18T15:41:56.378Z,8.90
2023-11-18T15:42:56.359Z,8.50
2023-11-18T15:43:56.381Z,9.20
2023-11-18T15:44:57.291Z,8.80
2023-11-18T15:45:56.319Z,8.00
2023-11-18T15:46:56.382Z,8.20
2023-11-18T15:47:56.422Z,9.20
2023-11-18T15:48:56.305Z,8.90
2023-11-18T15:49:56.362Z,9.20
2023-11-18T15:50:57.428Z,8.90
2023-11-18T15:51:56.241Z,9.20
2023-11-18T15:52:56.269Z,8.20
2023-11-18T15:53:56.227Z,8.40
2023-11-18T15:54:56.202Z,8.40
2023-11-18T15:55:56.327Z,8.70
2023-11-18T15:56:58.148Z,9.90
2023-11-18T15:57:56.278Z,10.40
2023-11-18T15:58:56.193Z,9.80
2023-11-18T15:59:56.139Z,11.10
2023-11-18T16:00:56.172Z,11.40
2023-11-18T16:01:56.132Z,10.00
2023-11-18T16:02:59.689Z,9.00
2023-11-18T16:03:57.182Z,10.50
2023-11-18T16:04:56.103Z,12.10
2023-11-18T16:05:56.075Z,11.30
2023-11-18T16:06:56.071Z,10.60
2023-11-18T16:07:56.081Z,11.10
2023-11-18T16:08:56.017Z,10.40
2023-11-18T16:09:56.012Z,9.90
2023-11-18T16:10:56.006Z,10.10
2023-11-18T16:11:56.008Z,10.20
2023-11-18T16:12:55.967Z,10.80
2023-11-18T16:13:56.026Z,9.80
2023-11-18T16:14:56.115Z,11.80
2023-11-18T16:15:55.955Z,8.80
2023-11-18T16:16:56.019Z,9.20
2023-11-18T16:17:56.006Z,10.10
2023-11-18T16:18:55.887Z,10.80
2023-11-18T16:19:55.917Z,11.30
2023-11-18T16:20:55.884Z,12.30
2023-11-18T16:21:55.858Z,10.00
2023-11-18T16:22:55.976Z,17.00
2023-11-18T16:23:55.841Z,12.70
2023-11-18T16:24:55.834Z,10.80
2023-11-18T16:25:55.842Z,12.70
2023-11-18T16:26:55.788Z,12.80
2023-11-18T16:27:55.803Z,12.50
2023-11-18T16:28:55.798Z,12.60
2023-11-18T16:29:55.771Z,11.30
2023-11-18T16:30:55.829Z,10.70
2023-11-18T16:31:55.800Z,11.20
2023-11-18T16:32:55.939Z,10.40
2023-11-18T16:33:55.775Z,9.40
2023-11-18T16:34:55.724Z,9.90
2023-11-18T16:35:55.682Z,11.00
2023-11-18T16:36:55.660Z,10.20
2023-11-18T16:37:56.117Z,12.60
2023-11-18T16:38:55.631Z,11.90
2023-11-18T16:39:55.657Z,11.80
2023-11-18T16:40:55.642Z,13.30
2023-11-18T16:41:55.678Z,11.90
2023-11-18T16:42:55.584Z,12.70
2023-11-18T16:43:55.658Z,12.10
2023-11-18T16:44:55.572Z,13.10
2023-11-18T16:45:55.567Z,11.60
2023-11-18T16:46:55.609Z,11.50
2023-11-18T16:47:56.129Z,12.50
2023-11-18T16:48:55.525Z,12.30
2023-11-18T16:50:03.040Z,12.20
2023-11-18T16:50:56.520Z,12.80
2023-11-18T16:51:58.278Z,14.40
2023-11-18T16:52:55.550Z,13.90
2023-11-18T16:53:55.458Z,13.80
2023-11-18T16:54:55.430Z,15.40
2023-11-18T16:55:55.457Z,17.50
2023-11-18T16:56:55.428Z,13.60
2023-11-18T16:57:55.684Z,15.90
2023-11-18T16:58:55.474Z,19.60
2023-11-18T16:59:55.378Z,16.30
2023-11-18T17:00:55.368Z,17.80
2023-11-18T17:01:55.366Z,21.00
2023-11-18T17:02:55.957Z,19.80
2023-11-18T17:03:55.410Z,20.10
2023-11-18T17:04:55.439Z,23.10
2023-11-18T17:05:55.298Z,19.40
2023-11-18T17:06:55.274Z,19.00
2023-11-18T17:07:55.745Z,18.40
2023-11-18T17:08:55.249Z,19.20
2023-11-18T17:09:55.251Z,17.60
2023-11-18T17:10:55.439Z,20.90
2023-11-18T17:11:55.229Z,18.40
2023-11-18T17:12:55.222Z,16.90
2023-11-18T17:13:55.242Z,21.20
2023-11-18T17:14:55.182Z,18.20
2023-11-18T17:15:55.173Z,21.30
2023-11-18T17:16:55.287Z,18.30
2023-11-18T17:17:55.301Z,18.00
2023-11-18T17:18:55.378Z,20.10
2023-11-18T17:19:55.138Z,21.20
2023-11-18T17:20:55.118Z,23.00
2023-11-18T17:21:55.118Z,21.30
2023-11-18T17:22:55.130Z,20.50
2023-11-18T17:23:55.068Z,16.00
2023-11-18T17:24:55.055Z,20.80
2023-11-18T17:25:55.066Z,19.80
2023-11-18T17:26:55.037Z,22.60
2023-11-18T17:27:55.148Z,23.60
2023-11-18T17:28:55.031Z,25.00
2023-11-18T17:29:54.977Z,16.70
2023-11-18T17:30:54.992Z,22.10
2023-11-18T17:31:55.074Z,17.90
2023-11-18T17:32:55.080Z,20.00
2023-11-18T17:33:54.947Z,21.10
2023-11-18T17:34:54.935Z,17.00
2023-11-18T17:35:54.924Z,17.40
2023-11-18T17:36:54.894Z,17.00
2023-11-18T17:37:54.892Z,17.70
2023-11-18T17:38:54.868Z,19.00
2023-11-18T17:39:54.854Z,21.40
2023-11-18T17:40:54.869Z,18.10
2023-11-18T17:41:54.842Z,22.60
2023-11-18T17:42:55.222Z,18.10
2023-11-18T17:43:54.811Z,19.00
2023-11-18T17:44:54.799Z,17.50
2023-11-18T17:45:54.784Z,19.90
2023-11-18T17:46:54.769Z,18.40
2023-11-18T17:47:54.771Z,17.20
2023-11-18T17:48:54.739Z,20.70
2023-11-18T17:49:54.751Z,22.70
2023-11-18T17:50:54.754Z,21.50
2023-11-18T17:51:54.708Z,19.80
2023-11-18T17:52:54.717Z,22.90
2023-11-18T17:53:54.688Z,21.60
2023-11-18T17:54:54.677Z,18.80
2023-11-18T17:55:54.644Z,17.80
2023-11-18T17:56:54.635Z,18.10
2023-11-18T17:57:54.626Z,18.10
2023-11-18T17:58:54.636Z,20.70
2023-11-18T17:59:54.601Z,19.50
2023-11-18T18:00:54.591Z,19.40
2023-11-18T18:01:54.567Z,17.10
2023-11-18T18:02:54.786Z,17.90
2023-11-18T18:03:54.596Z,19.00
2023-11-18T18:04:54.536Z,17.50
2023-11-18T18:05:54.511Z,22.40
2023-11-18T18:06:54.514Z,21.50
2023-11-18T18:07:54.626Z,25.50
2023-11-18T18:08:54.489Z,16.00
2023-11-18T18:09:54.462Z,20.40
2023-11-18T18:10:54.464Z,20.90
2023-11-18T18:11:54.454Z,21.10
2023-11-18T18:12:54.455Z,16.30
2023-11-18T18:13:54.426Z,17.80